createdAt,value
2018-09-10T00:01:33.667Z,77.90
2018-09-10T00:04:02.121Z,78.30
2018-09-10T00:06:30.599Z,78.00
2018-09-10T00:08:59.028Z,78.20
2018-09-10T00:11:27.492Z,78.00
2018-09-10T00:13:55.926Z,79.60
2018-09-10T00:16:24.363Z,78.80
2018-09-10T00:18:52.820Z,78.90
2018-09-10T00:21:21.246Z,78.50
2018-09-10T00:23:49.703Z,79.00
2018-09-10T00:26:18.161Z,78.90
2018-09-10T00:28:46.607Z,79.00
2018-09-10T00:31:15.074Z,79.40
2018-09-10T00:33:43.500Z,79.40
2018-09-10T00:36:11.962Z,79.60
2018-09-10T00:38:40.394Z,79.40
2018-09-10T00:41:08.818Z,79.10
2018-09-10T00:43:37.276Z,78.80
2018-09-10T00:46:05.713Z,79.90
2018-09-10T00:48:34.217Z,79.30
2018-09-10T00:51:02.701Z,79.20
2018-09-10T00:53:31.133Z,79.40
2018-09-10T00:55:59.558Z,79.30
2018-09-10T00:58:28.018Z,79.30
2018-09-10T01:00:56.478Z,79.50
2018-09-10T01:03:25.170Z,79.80
2018-09-10T01:05:53.598Z,80.10
2018-09-10T01:08:22.021Z,80.60
2018-09-10T01:10:50.452Z,79.80
2018-09-10T01:13:18.909Z,80.50
2018-09-10T01:15:47.338Z,80.50
2018-09-10T01:18:15.756Z,80.70
2018-09-10T01:20:44.489Z,80.70
2018-09-10T01:23:12.946Z,80.70
2018-09-10T01:25:41.382Z,80.40
2018-09-10T01:28:09.789Z,80.30
2018-09-10T01:30:38.212Z,80.70
2018-09-10T01:33:10.854Z,80.80
2018-09-10T01:35:39.279Z,80.70
2018-09-10T01:38:07.721Z,81.00
2018-09-10T01:40:36.426Z,80.80
2018-09-10T01:43:04.847Z,80.50
2018-09-10T01:45:33.293Z,81.20
2018-09-10T01:48:01.736Z,81.50
2018-09-10T01:50:30.171Z,81.30
2018-09-10T01:52:58.592Z,81.50
2018-09-10T01:55:27.012Z,81.60
2018-09-10T01:57:55.456Z,81.80
2018-09-10T02:00:23.888Z,82.60
2018-09-10T02:02:52.347Z,81.80
2018-09-10T02:05:20.809Z,81.30
2018-09-10T02:07:49.224Z,81.80
2018-09-10T02:10:17.671Z,81.90
2018-09-10T02:12:46.119Z,82.10
2018-09-10T02:15:14.592Z,82.00
2018-09-10T02:17:43.027Z,82.10
2018-09-10T02:20:11.508Z,82.20
2018-09-10T02:22:40.192Z,82.70
2018-09-10T02:25:08.684Z,82.70
2018-09-10T02:27:37.167Z,83.00
2018-09-10T02:30:06.152Z,84.10
2018-09-10T02:32:34.591Z,83.40
2018-09-10T02:35:03.052Z,83.80
2018-09-10T02:37:31.576Z,83.40
2018-09-10T02:40:00.113Z,83.50
2018-09-10T02:42:28.568Z,83.80
2018-09-10T02:44:57.004Z,84.00
2018-09-10T02:47:25.465Z,83.90
2018-09-10T02:49:54.008Z,84.10
2018-09-10T02:52:22.636Z,83.90
2018-09-10T02:54:51.080Z,84.60
2018-09-10T02:57:19.506Z,84.10
2018-09-10T02:59:47.946Z,85.00
2018-09-10T03:02:16.688Z,84.20
2018-09-10T03:04:45.618Z,84.50
2018-09-10T03:07:14.909Z,84.50
2018-09-10T03:09:43.370Z,84.70
2018-09-10T03:12:11.835Z,84.60
2018-09-10T03:14:40.340Z,84.10
2018-09-10T03:17:08.790Z,84.60
2018-09-10T03:19:37.227Z,84.50
2018-09-10T03:22:05.672Z,84.30
2018-09-10T03:24:34.179Z,84.20
2018-09-10T03:27:02.604Z,84.60
2018-09-10T03:29:31.075Z,84.30
2018-09-10T03:31:59.512Z,84.40
2018-09-10T03:34:28.252Z,84.80
2018-09-10T03:36:56.729Z,85.00
2018-09-10T03:39:25.172Z,85.00
2018-09-10T03:41:53.636Z,85.00
2018-09-10T03:44:22.354Z,85.30
2018-09-10T03:46:50.801Z,84.40
2018-09-10T03:49:19.236Z,85.20
2018-09-10T03:51:47.689Z,85.20
2018-09-10T03:54:16.149Z,85.50
2018-09-10T03:56:45.458Z,85.70
2018-09-10T03:59:14.124Z,85.70
2018-09-10T04:01:42.580Z,85.90
2018-09-10T04:04:11.041Z,85.70
2018-09-10T04:06:39.525Z,85.40
2018-09-10T04:09:08.663Z,85.40
2018-09-10T04:11:37.432Z,85.60
2018-09-10T04:14:05.903Z,85.80
2018-09-10T04:16:34.346Z,85.80
2018-09-10T04:19:02.869Z,85.90
2018-09-10T04:21:31.396Z,85.90
2018-09-10T04:23:59.807Z,86.00
2018-09-10T04:26:28.283Z,86.40
2018-09-10T04:28:56.714Z,86.40
2018-09-10T04:31:25.191Z,86.70
2018-09-10T04:33:53.624Z,86.50
2018-09-10T04:36:22.056Z,86.50
2018-09-10T04:38:50.508Z,86.40
2018-09-10T04:41:18.972Z,86.50
2018-09-10T04:43:47.752Z,86.70
2018-09-10T04:46:16.191Z,86.80
2018-09-10T04:48:44.947Z,87.00
2018-09-10T04:51:13.408Z,86.90
2018-09-10T04:53:41.850Z,86.50
2018-09-10T04:56:10.316Z,86.20
2018-09-10T04:58:38.755Z,86.40
2018-09-10T05:01:07.300Z,86.10
2018-09-10T05:03:35.899Z,85.90
2018-09-10T05:06:04.323Z,86.00
2018-09-10T05:08:32.789Z,86.20
2018-09-10T05:11:01.237Z,86.40
2018-09-10T05:13:29.668Z,86.50
2018-09-10T05:15:58.115Z,86.60
2018-09-10T05:18:26.551Z,86.30
2018-09-10T05:20:54.999Z,86.60
2018-09-10T05:23:23.424Z,86.60
2018-09-10T05:25:52.114Z,86.30
2018-09-10T05:28:20.629Z,86.20
2018-09-10T05:30:49.010Z,86.20
2018-09-10T05:33:17.464Z,86.20
2018-09-10T05:35:45.927Z,86.20
2018-09-10T05:38:14.350Z,86.30
2018-09-10T05:40:42.815Z,86.20
2018-09-10T05:43:11.276Z,85.80
2018-09-10T05:45:40.072Z,85.40
2018-09-10T05:48:08.513Z,85.50
2018-09-10T05:50:36.935Z,85.50
2018-09-10T05:53:05.393Z,85.40
2018-09-10T05:55:33.913Z,85.00
2018-09-10T05:58:02.315Z,84.80
2018-09-10T06:00:30.785Z,84.60
2018-09-10T06:02:59.233Z,84.80
2018-09-10T06:05:27.680Z,84.60
2018-09-10T06:07:56.112Z,84.70
2018-09-10T06:10:24.757Z,84.80
2018-09-10T06:12:53.541Z,85.00
2018-09-10T06:15:21.976Z,85.10
2018-09-10T06:17:50.728Z,85.40
2018-09-10T06:20:19.197Z,85.40
2018-09-10T06:22:47.657Z,85.40
2018-09-10T06:25:16.389Z,85.30
2018-09-10T06:27:44.851Z,85.40
2018-09-10T06:30:13.683Z,85.80
2018-09-10T06:32:42.096Z,85.50
2018-09-10T06:35:10.571Z,85.50
2018-09-10T06:37:39.000Z,85.50
2018-09-10T06:40:07.488Z,85.60
2018-09-10T06:42:35.932Z,85.70
2018-09-10T06:45:04.412Z,85.30
2018-09-10T06:47:32.857Z,84.80
2018-09-10T06:50:01.278Z,84.60
2018-09-10T06:52:29.719Z,85.20
2018-09-10T06:54:58.173Z,84.00
2018-09-10T06:57:26.620Z,84.60
2018-09-10T06:59:55.071Z,84.30
2018-09-10T07:02:23.518Z,83.90
2018-09-10T07:04:51.926Z,84.10
2018-09-10T07:07:20.376Z,83.10
2018-09-10T07:09:48.790Z,81.90
2018-09-10T07:12:17.243Z,81.50
2018-09-10T07:14:45.682Z,80.50
2018-09-10T07:17:14.119Z,80.80
2018-09-10T07:19:42.575Z,80.60
2018-09-10T07:22:11.334Z,80.20
2018-09-10T07:24:39.870Z,78.30
2018-09-10T07:27:08.350Z,78.60
2018-09-10T07:29:36.808Z,76.40
2018-09-10T07:32:05.324Z,76.70
2018-09-10T07:34:33.828Z,76.70
2018-09-10T07:37:02.431Z,77.30
2018-09-10T07:39:30.899Z,78.00
2018-09-10T07:41:59.385Z,78.10
2018-09-10T07:44:27.866Z,75.10
2018-09-10T07:46:56.386Z,71.90
2018-09-10T07:49:24.916Z,70.80
2018-09-10T07:51:53.401Z,70.10
2018-09-10T07:54:21.900Z,69.40
2018-09-10T07:56:50.394Z,71.40
2018-09-10T07:59:18.847Z,69.80
2018-09-10T08:01:47.354Z,64.60
2018-09-10T08:04:15.834Z,63.60
2018-09-10T08:06:44.302Z,63.20
2018-09-10T08:09:12.828Z,62.60
2018-09-10T08:11:41.297Z,63.30
2018-09-10T08:14:09.776Z,62.90
2018-09-10T08:16:38.357Z,65.40
2018-09-10T08:19:06.760Z,63.00
2018-09-10T08:21:35.263Z,60.10
2018-09-10T08:24:03.770Z,60.30
2018-09-10T08:26:32.269Z,60.10
2018-09-10T08:29:01.102Z,58.40
2018-09-10T08:31:29.612Z,57.50
2018-09-10T08:33:58.103Z,55.90
2018-09-10T08:36:26.602Z,53.90
2018-09-10T08:38:55.388Z,54.20
2018-09-10T08:41:23.877Z,53.90
2018-09-10T08:43:52.812Z,53.40
2018-09-10T08:46:21.322Z,53.00
2018-09-10T08:48:49.835Z,53.00
2018-09-10T08:51:18.316Z,51.50
2018-09-10T08:53:46.786Z,50.70
2018-09-10T08:56:15.590Z,51.90
2018-09-10T08:58:43.801Z,50.40
2018-09-10T09:01:12.254Z,49.50
2018-09-10T09:03:40.716Z,49.40
2018-09-10T09:06:09.221Z,50.30
2018-09-10T09:08:37.670Z,50.10
2018-09-10T09:11:06.156Z,48.90
2018-09-10T09:13:34.657Z,49.50
2018-09-10T09:16:03.150Z,49.20
2018-09-10T09:18:31.619Z,48.80
2018-09-10T09:21:00.127Z,48.70
2018-09-10T09:23:28.664Z,49.20
2018-09-10T09:25:57.205Z,48.50
2018-09-10T09:28:25.864Z,48.00
2018-09-10T09:30:54.342Z,48.00
2018-09-10T09:33:22.787Z,47.30
2018-09-10T09:35:56.698Z,47.40
2018-09-10T09:38:30.644Z,48.00
2018-09-10T09:41:04.314Z,48.20
2018-09-10T09:43:38.367Z,47.00
2018-09-10T09:46:08.950Z,45.60
2018-09-10T09:48:37.431Z,44.90
2018-09-10T09:51:06.025Z,45.20
2018-09-10T09:53:35.318Z,44.40
2018-09-10T09:56:03.822Z,44.40
2018-09-10T09:58:32.745Z,44.20
2018-09-10T10:01:06.559Z,43.20
2018-09-10T10:03:40.335Z,43.60
2018-09-10T10:06:08.790Z,44.70
2018-09-10T10:08:37.282Z,43.20
2018-09-10T10:11:05.860Z,43.20
2018-09-10T10:13:34.350Z,41.30
2018-09-10T10:16:02.847Z,42.60
2018-09-10T10:18:31.886Z,42.70
2018-09-10T10:21:00.379Z,42.90
2018-09-10T10:23:28.859Z,41.90
2018-09-10T10:25:57.348Z,43.40
2018-09-10T10:28:25.836Z,40.50
2018-09-10T10:30:54.310Z,40.80
2018-09-10T10:33:22.815Z,41.00
2018-09-10T10:35:51.323Z,40.50
2018-09-10T10:38:19.815Z,38.70
2018-09-10T10:40:48.258Z,39.00
2018-09-10T10:43:16.756Z,39.10
2018-09-10T10:45:45.214Z,39.30
2018-09-10T10:48:13.742Z,40.30
2018-09-10T10:50:42.212Z,40.10
2018-09-10T10:53:10.710Z,40.80
2018-09-10T10:55:39.175Z,40.20
2018-09-10T10:58:07.715Z,39.60
2018-09-10T11:00:36.468Z,39.60
2018-09-10T11:03:05.002Z,40.00
2018-09-10T11:05:33.497Z,40.00
2018-09-10T11:08:02.232Z,41.10
2018-09-10T11:10:30.730Z,40.90
2018-09-10T11:12:59.210Z,41.60
2018-09-10T11:15:27.682Z,42.10
2018-09-10T11:17:56.146Z,41.20
2018-09-10T11:20:24.634Z,41.70
2018-09-10T11:22:53.141Z,41.30
2018-09-10T11:25:21.911Z,42.40
2018-09-10T11:27:50.424Z,42.30
2018-09-10T11:30:18.889Z,42.70
2018-09-10T11:32:47.402Z,43.00
2018-09-10T11:35:15.895Z,42.30
2018-09-10T11:37:44.403Z,42.50
2018-09-10T11:40:12.950Z,41.80
2018-09-10T11:42:41.479Z,41.10
2018-09-10T11:45:09.983Z,41.30
2018-09-10T11:47:38.466Z,39.90
2018-09-10T11:50:06.986Z,39.70
2018-09-10T11:52:35.462Z,40.00
2018-09-10T11:55:03.958Z,39.80
2018-09-10T11:57:32.474Z,38.70
2018-09-10T12:00:00.992Z,40.00
2018-09-10T12:02:29.485Z,40.20
2018-09-10T12:04:58.296Z,39.10
2018-09-10T12:07:26.774Z,39.50
2018-09-10T12:09:55.237Z,39.10
2018-09-10T12:12:23.726Z,39.40
2018-09-10T12:14:52.268Z,39.90
2018-09-10T12:17:20.720Z,40.60
2018-09-10T12:19:49.309Z,38.80
2018-09-10T12:22:17.789Z,38.10
2018-09-10T12:24:46.504Z,38.00
2018-09-10T12:27:14.999Z,37.30
2018-09-10T12:29:43.574Z,38.20
2018-09-10T12:32:12.040Z,37.00
2018-09-10T12:34:40.501Z,37.70
2018-09-10T12:37:09.014Z,36.70
2018-09-10T12:39:37.529Z,35.20
2018-09-10T12:42:06.100Z,36.50
2018-09-10T12:44:34.566Z,36.60
2018-09-10T12:47:03.038Z,36.50
2018-09-10T12:49:31.547Z,36.40
2018-09-10T12:52:00.014Z,36.50
2018-09-10T12:54:28.494Z,36.10
2018-09-10T12:56:57.070Z,36.50
2018-09-10T12:59:25.732Z,36.20
2018-09-10T13:01:54.221Z,35.60
2018-09-10T13:04:22.754Z,36.70
2018-09-10T13:06:51.174Z,36.80
2018-09-10T13:09:19.619Z,36.50
2018-09-10T13:11:48.135Z,36.90
2018-09-10T13:14:17.054Z,37.20
2018-09-10T13:16:45.791Z,37.30
2018-09-10T13:19:14.299Z,37.70
2018-09-10T13:21:42.845Z,37.80
2018-09-10T13:24:11.316Z,36.60
2018-09-10T13:26:39.793Z,37.80
2018-09-10T13:29:08.303Z,37.90
2018-09-10T13:31:36.764Z,36.60
2018-09-10T13:34:05.286Z,35.40
2018-09-10T13:36:33.871Z,34.50
2018-09-10T13:39:02.374Z,33.60
2018-09-10T13:41:30.839Z,33.70
2018-09-10T13:43:59.283Z,33.20
2018-09-10T13:46:27.803Z,33.80
2018-09-10T13:48:56.266Z,34.50
2018-09-10T13:51:25.171Z,35.10
2018-09-10T13:53:53.956Z,34.80
2018-09-10T13:56:22.399Z,35.00
2018-09-10T13:58:51.034Z,35.50
2018-09-10T14:01:19.584Z,34.90
2018-09-10T14:03:48.068Z,35.20
2018-09-10T14:06:16.524Z,34.90
2018-09-10T14:08:44.990Z,34.70
2018-09-10T14:11:13.480Z,35.20
2018-09-10T14:13:41.958Z,34.10
2018-09-10T14:16:10.687Z,35.30
2018-09-10T14:18:39.143Z,34.20
2018-09-10T14:21:07.674Z,34.90
2018-09-10T14:23:36.155Z,34.00
2018-09-10T14:26:05.137Z,33.70
2018-09-10T14:28:33.750Z,34.90
2018-09-10T14:31:02.222Z,33.10
2018-09-10T14:33:30.703Z,34.50
2018-09-10T14:35:59.656Z,35.10
2018-09-10T14:38:28.139Z,33.60
2018-09-10T14:40:56.609Z,35.40
2018-09-10T14:43:25.080Z,35.40
2018-09-10T14:45:53.559Z,35.60
2018-09-10T14:48:22.356Z,35.50
2018-09-10T14:50:50.890Z,35.90
2018-09-10T14:53:19.368Z,36.10
2018-09-10T14:55:47.861Z,35.30
2018-09-10T14:58:16.920Z,35.00
2018-09-10T15:00:45.347Z,35.50
2018-09-10T15:03:14.124Z,35.60
2018-09-10T15:05:42.661Z,36.00
2018-09-10T15:08:11.098Z,35.80
2018-09-10T15:10:39.563Z,35.60
2018-09-10T15:13:08.077Z,36.10
2018-09-10T15:15:36.523Z,36.00
2018-09-10T15:18:05.002Z,36.50
2018-09-10T15:20:33.502Z,36.00
2018-09-10T15:23:02.028Z,37.10
2018-09-10T15:25:30.513Z,37.20
2018-09-10T15:27:59.004Z,37.60
2018-09-10T15:30:27.506Z,38.40
2018-09-10T15:32:55.986Z,39.00
2018-09-10T15:35:24.457Z,41.30
2018-09-10T15:37:52.926Z,42.00
2018-09-10T15:40:21.396Z,41.40
2018-09-10T15:42:49.894Z,41.30
2018-09-10T15:45:18.473Z,41.20
2018-09-10T15:47:46.892Z,42.40
2018-09-10T15:50:15.347Z,43.00
2018-09-10T15:52:43.814Z,42.50
2018-09-10T15:55:12.272Z,43.80
2018-09-10T15:57:40.736Z,43.80
2018-09-10T16:00:09.314Z,44.30
2018-09-10T16:02:37.751Z,44.50
2018-09-10T16:05:06.312Z,45.00
2018-09-10T16:07:34.795Z,44.90
2018-09-10T16:10:03.290Z,46.10
2018-09-10T16:12:31.767Z,46.40
2018-09-10T16:15:00.238Z,47.30
2018-09-10T16:17:28.709Z,47.10
2018-09-10T16:19:57.215Z,47.20
2018-09-10T16:22:25.770Z,48.40
2018-09-10T16:24:54.219Z,49.30
2018-09-10T16:27:23.021Z,49.30
2018-09-10T16:29:51.471Z,49.40
2018-09-10T16:32:19.939Z,50.20
2018-09-10T16:34:48.415Z,50.80
2018-09-10T16:37:16.884Z,51.70
2018-09-10T16:39:45.369Z,52.70
2018-09-10T16:42:13.814Z,52.60
2018-09-10T16:44:42.309Z,52.30
2018-09-10T16:47:10.746Z,52.80
2018-09-10T16:49:39.236Z,52.80
2018-09-10T16:52:07.738Z,53.00
2018-09-10T16:54:36.242Z,52.60
2018-09-10T16:57:04.746Z,52.70
2018-09-10T16:59:33.240Z,52.90
2018-09-10T17:02:01.716Z,52.30
2018-09-10T17:04:30.188Z,52.80
2018-09-10T17:06:58.665Z,54.20
2018-09-10T17:09:27.158Z,54.70
2018-09-10T17:11:55.697Z,55.00
2018-09-10T17:14:24.156Z,55.40
2018-09-10T17:16:52.603Z,55.90
2018-09-10T17:19:21.107Z,56.10
2018-09-10T17:21:49.582Z,56.00
2018-09-10T17:24:18.362Z,55.50
2018-09-10T17:26:46.851Z,54.50
2018-09-10T17:29:15.656Z,54.70
2018-09-10T17:31:44.151Z,55.40
2018-09-10T17:34:12.973Z,56.10
2018-09-10T17:36:41.465Z,56.60
2018-09-10T17:39:09.945Z,56.90
2018-09-10T17:41:38.410Z,57.60
2018-09-10T17:44:07.024Z,58.30
2018-09-10T17:46:35.478Z,58.80
2018-09-10T17:49:03.977Z,58.30
2018-09-10T17:51:32.449Z,58.00
2018-09-10T17:54:00.947Z,57.60
2018-09-10T17:59:20.312Z,58.70
2018-09-10T18:01:48.813Z,59.30
2018-09-10T18:04:17.311Z,60.50
2018-09-10T18:06:45.828Z,61.00
2018-09-10T18:09:14.329Z,60.40
2018-09-10T18:11:43.163Z,59.60
2018-09-10T18:14:11.952Z,58.80
2018-09-10T18:16:40.480Z,57.20
2018-09-10T18:19:08.988Z,57.70
2018-09-10T18:21:37.516Z,58.60
2018-09-10T18:24:06.195Z,59.60
2018-09-10T18:26:34.952Z,60.50
2018-09-10T18:29:03.484Z,60.10
2018-09-10T18:31:31.992Z,59.40
2018-09-10T18:34:00.563Z,57.80
2018-09-10T18:36:29.081Z,58.60
2018-09-10T18:38:57.602Z,59.50
2018-09-10T18:41:26.135Z,58.30
2018-09-10T18:43:54.641Z,59.10
2018-09-10T18:46:23.364Z,59.40
2018-09-10T18:48:51.913Z,60.00
2018-09-10T18:51:20.444Z,61.70
2018-09-10T18:53:48.944Z,61.60
2018-09-10T18:56:17.442Z,60.70
2018-09-10T18:58:45.979Z,59.70
2018-09-10T19:01:14.686Z,60.60
2018-09-10T19:03:43.020Z,60.60
2018-09-10T19:06:11.938Z,60.80
2018-09-10T19:08:40.489Z,62.40
2018-09-10T19:11:08.990Z,61.20
2018-09-10T19:13:37.548Z,61.30
2018-09-10T19:16:06.120Z,61.70
2018-09-10T19:18:37.683Z,61.90
2018-09-10T19:21:06.688Z,61.80
2018-09-10T19:23:35.972Z,61.90
2018-09-10T19:26:04.999Z,63.00
2018-09-10T19:28:33.510Z,62.20
2018-09-10T19:31:02.219Z,61.50
2018-09-10T19:33:31.128Z,60.50
2018-09-10T19:35:59.679Z,61.90
2018-09-10T19:38:28.193Z,62.60
2018-09-10T19:40:57.359Z,61.10
2018-09-10T19:43:25.881Z,60.60
2018-09-10T19:45:54.388Z,61.10
2018-09-10T19:48:23.180Z,60.70
2018-09-10T19:50:51.770Z,61.20
2018-09-10T19:53:20.244Z,61.10
2018-09-10T19:55:48.758Z,61.40
2018-09-10T19:58:17.292Z,61.60
2018-09-10T20:00:45.820Z,62.30
2018-09-10T20:03:14.330Z,62.80
2018-09-10T20:05:42.828Z,62.90
2018-09-10T20:08:11.676Z,63.30
2018-09-10T20:10:40.197Z,63.40
2018-09-10T20:13:08.680Z,63.80
2018-09-10T20:15:37.207Z,64.70
2018-09-10T20:18:05.805Z,65.50
2018-09-10T20:20:34.334Z,65.70
2018-09-10T20:23:03.204Z,66.00
2018-09-10T20:25:31.704Z,66.90
2018-09-10T20:28:00.199Z,67.50
2018-09-10T20:30:28.767Z,68.10
2018-09-10T20:32:57.240Z,68.90
2018-09-10T20:35:25.772Z,68.70
2018-09-10T20:37:54.788Z,68.90
2018-09-10T20:40:23.315Z,69.60
2018-09-10T20:42:51.856Z,69.80
2018-09-10T20:45:20.356Z,70.40
2018-09-10T20:47:48.886Z,69.90
2018-09-10T20:50:17.375Z,70.90
2018-09-10T20:52:45.904Z,70.60
2018-09-10T20:55:14.420Z,70.90
2018-09-10T20:57:43.168Z,70.50
2018-09-10T21:00:11.700Z,70.80
2018-09-10T21:02:40.215Z,70.80
2018-09-10T21:05:08.740Z,70.40
2018-09-10T21:07:37.271Z,68.80
2018-09-10T21:10:06.468Z,68.50
2018-09-10T21:12:35.003Z,67.50
2018-09-10T21:15:03.576Z,67.80
2018-09-10T21:17:32.066Z,68.00
2018-09-10T21:20:00.583Z,69.30
2018-09-10T21:22:29.355Z,68.70
2018-09-10T21:24:57.880Z,68.60
2018-09-10T21:27:26.404Z,68.50
2018-09-10T21:29:55.196Z,67.80
2018-09-10T21:32:23.719Z,67.70
2018-09-10T21:34:52.224Z,67.90
2018-09-10T21:37:20.727Z,68.40
2018-09-10T21:39:49.272Z,68.20
2018-09-10T21:42:17.778Z,67.80
2018-09-10T21:44:46.296Z,67.60
2018-09-10T21:47:15.121Z,67.80
2018-09-10T21:49:43.620Z,67.30
2018-09-10T21:52:12.121Z,68.30
2018-09-10T21:54:40.627Z,68.10
2018-09-10T21:57:09.151Z,68.50
2018-09-10T21:59:37.641Z,68.90
2018-09-10T22:02:06.184Z,69.10
2018-09-10T22:04:34.707Z,68.80
2018-09-10T22:07:03.200Z,68.90
2018-09-10T22:09:31.691Z,68.90
2018-09-10T22:12:02.189Z,69.30
2018-09-10T22:14:31.444Z,69.40
2018-09-10T22:17:00.148Z,69.40
2018-09-10T22:19:28.671Z,70.00
2018-09-10T22:21:57.393Z,69.80
2018-09-10T22:24:26.280Z,69.60
2018-09-10T22:26:54.803Z,69.60
2018-09-10T22:29:23.279Z,69.30
2018-09-10T22:31:52.062Z,68.80
2018-09-10T22:34:20.552Z,68.40
2018-09-10T22:36:49.072Z,67.80
2018-09-10T22:39:17.592Z,67.40
2018-09-10T22:41:46.201Z,67.10
2018-09-10T22:44:14.736Z,66.70
2018-09-10T22:46:43.267Z,67.10
2018-09-10T22:49:11.785Z,67.10
2018-09-10T22:51:40.307Z,66.80
2018-09-10T22:54:09.120Z,66.80
2018-09-10T22:56:37.980Z,66.90
2018-09-10T22:59:06.547Z,67.10
2018-09-10T23:01:35.112Z,66.90
2018-09-10T23:04:03.725Z,67.00
2018-09-10T23:06:32.234Z,67.60
2018-09-10T23:09:00.755Z,67.60
2018-09-10T23:11:29.260Z,67.60
2018-09-10T23:13:57.775Z,67.60
2018-09-10T23:16:26.344Z,67.90
2018-09-10T23:18:54.827Z,68.10
2018-09-10T23:21:23.308Z,67.70
2018-09-10T23:23:51.829Z,67.60
2018-09-10T23:26:20.383Z,68.30
2018-09-10T23:28:48.896Z,67.90
2018-09-10T23:31:17.392Z,68.50
2018-09-10T23:33:45.963Z,68.00
2018-09-10T23:36:14.467Z,69.00
2018-09-10T23:38:42.949Z,68.10
2018-09-10T23:41:11.484Z,69.00
2018-09-10T23:43:40.002Z,68.90
2018-09-10T23:46:08.520Z,68.90
2018-09-10T23:48:37.056Z,69.20
2018-09-10T23:51:05.593Z,69.40
2018-09-10T23:53:34.106Z,69.40
2018-09-10T23:56:02.663Z,69.50
2018-09-10T23:58:31.152Z,69.60
